createdAt,value
2019-01-06T00:02:08.481Z,15.00
2019-01-06T00:05:13.011Z,19.80
2019-01-06T00:08:32.916Z,9.30
2019-01-06T00:11:38.868Z,14.80
2019-01-06T00:14:59.179Z,15.07
2019-01-06T00:18:18.918Z,11.03
2019-01-06T00:21:39.708Z,15.53
2019-01-06T00:24:52.952Z,14.27
2019-01-06T00:27:56.392Z,17.10
2019-01-06T00:31:02.332Z,17.17
2019-01-06T00:34:14.655Z,16.33
2019-01-06T00:37:34.872Z,9.47
2019-01-06T00:40:54.835Z,15.17
2019-01-06T00:44:01.102Z,12.73
2019-01-06T00:47:04.808Z,6.50
2019-01-06T00:50:23.568Z,9.43
2019-01-06T00:53:38.951Z,9.73
2019-01-06T00:56:40.549Z,8.03
2019-01-06T00:59:50.149Z,11.27
2019-01-06T01:02:54.481Z,11.97
2019-01-06T01:06:02.172Z,9.17
2019-01-06T01:09:42.309Z,10.97
2019-01-06T01:12:51.856Z,7.00
2019-01-06T01:16:00.893Z,8.93
2019-01-06T01:19:04.608Z,11.53
2019-01-06T01:22:07.900Z,9.33
2019-01-06T01:25:14.183Z,14.40
2019-01-06T01:36:18.654Z,11.40
2019-01-06T01:46:20.253Z,13.53
2019-01-06T01:56:24.721Z,12.17
2019-01-06T02:06:49.876Z,10.80
2019-01-06T02:17:08.226Z,16.10
2019-01-06T02:27:09.979Z,9.53
2019-01-06T02:37:13.369Z,15.33
2019-01-06T02:47:16.865Z,13.87
2019-01-06T02:57:26.271Z,15.10
2019-01-06T03:07:54.168Z,14.90
2019-01-06T03:17:58.330Z,22.27
2019-01-06T03:28:00.053Z,17.43
2019-01-06T03:38:06.201Z,14.23
2019-01-06T03:48:12.562Z,15.00
2019-01-06T03:58:32.900Z,35.53
2019-01-06T04:08:42.697Z,121.23
2019-01-06T04:19:02.518Z,19.20
2019-01-06T04:29:04.327Z,7.53
2019-01-06T04:39:06.109Z,7.67
2019-01-06T04:49:16.121Z,12.33
2019-01-06T04:59:36.171Z,13.90
2019-01-06T05:09:57.235Z,8.93
2019-01-06T05:20:00.674Z,11.63
2019-01-06T05:30:11.545Z,10.30
2019-01-06T05:40:14.922Z,5.87
2019-01-06T05:50:21.423Z,8.33
2019-01-06T06:00:25.287Z,5.20
2019-01-06T06:10:28.843Z,13.37
2019-01-06T06:20:49.085Z,14.70
2019-01-06T06:30:58.788Z,15.23
2019-01-06T06:41:09.196Z,13.27
2019-01-06T06:51:29.435Z,11.73
2019-01-06T07:01:36.134Z,13.13
2019-01-06T07:11:38.073Z,14.23
2019-01-06T07:21:58.305Z,23.70
2019-01-06T07:32:08.149Z,14.97
2019-01-06T07:42:28.236Z,32.60
2019-01-06T07:52:37.221Z,13.33
2019-01-06T08:02:40.824Z,14.37
2019-01-06T08:12:43.280Z,20.13
2019-01-06T08:22:52.460Z,15.93
2019-01-06T08:32:56.108Z,10.23
2019-01-06T08:43:05.811Z,14.23
2019-01-06T08:53:14.882Z,61.67
2019-01-06T09:03:24.100Z,42.00
2019-01-06T09:13:28.512Z,71.60
2019-01-06T09:23:48.561Z,25.57
2019-01-06T09:33:56.413Z,23.27
2019-01-06T09:44:02.004Z,17.00
2019-01-06T09:54:12.519Z,18.47
2019-01-06T10:04:16.170Z,18.97
2019-01-06T10:14:28.783Z,18.80
2019-01-06T10:24:35.962Z,17.73
2019-01-06T10:34:55.993Z,13.90
2019-01-06T10:44:59.394Z,25.33
2019-01-06T10:55:01.043Z,28.47
2019-01-06T11:05:06.765Z,34.67
2019-01-06T11:15:15.200Z,34.63
2019-01-06T11:25:27.818Z,32.43
2019-01-06T11:35:34.381Z,39.50
2019-01-06T11:45:37.764Z,23.73
2019-01-06T11:55:49.872Z,23.60
2019-01-06T12:06:10.222Z,23.73
2019-01-06T12:16:26.222Z,39.83
2019-01-06T12:26:33.389Z,83.37
2019-01-06T12:36:54.957Z,50.87
2019-01-06T12:47:04.034Z,29.60
2019-01-06T12:57:19.254Z,22.13
2019-01-06T13:07:38.306Z,70.77
2019-01-06T13:17:50.519Z,47.63
2019-01-06T13:27:52.019Z,29.03
2019-01-06T13:38:02.171Z,74.40
2019-01-06T13:48:17.649Z,39.80
2019-01-06T13:58:23.652Z,120.43
2019-01-06T14:08:29.968Z,28.83
2019-01-06T14:18:34.340Z,32.43
2019-01-06T14:28:44.743Z,22.57
2019-01-06T14:38:48.599Z,51.10
2019-01-06T14:49:08.532Z,35.97
2019-01-06T14:59:10.140Z,43.03
2019-01-06T15:09:16.739Z,37.47
2019-01-06T15:19:24.101Z,27.87
2019-01-06T15:29:30.327Z,40.00
2019-01-06T15:39:39.783Z,30.90
2019-01-06T15:49:59.825Z,33.67
2019-01-06T16:00:03.365Z,27.20
2019-01-06T16:10:10.664Z,16.57
2019-01-06T16:20:13.055Z,20.13
2019-01-06T16:30:31.930Z,32.13
2019-01-06T16:40:47.761Z,26.90
2019-01-06T16:50:51.301Z,36.20
2019-01-06T17:00:54.793Z,22.37
2019-01-06T17:11:15.203Z,38.83
2019-01-06T17:21:25.541Z,44.37
2019-01-06T17:31:34.820Z,28.70
2019-01-06T17:41:44.644Z,42.10
2019-01-06T17:52:03.363Z,39.87
2019-01-06T18:02:07.881Z,44.43
2019-01-06T18:12:20.191Z,46.03
2019-01-06T18:22:27.410Z,45.93
2019-01-06T18:32:30.888Z,40.03
2019-01-06T18:42:51.026Z,165.37
2019-01-06T18:53:09.389Z,101.90
2019-01-06T19:03:27.716Z,60.87
2019-01-06T19:13:47.758Z,62.60
2019-01-06T19:23:55.420Z,90.40
2019-01-06T19:34:04.574Z,68.43
2019-01-06T19:44:11.370Z,224.50
2019-01-06T19:54:12.857Z,194.30
2019-01-06T20:04:16.241Z,253.53
2019-01-06T20:14:18.050Z,229.60
2019-01-06T20:24:31.127Z,291.57
2019-01-06T20:34:51.253Z,61.83
2019-01-06T20:45:03.617Z,28.27
2019-01-06T20:55:24.063Z,28.40
2019-01-06T21:05:27.459Z,55.00
2019-01-06T21:15:35.042Z,50.77
2019-01-06T21:25:51.444Z,83.23
2019-01-06T21:36:00.775Z,63.07
2019-01-06T21:46:22.516Z,63.27
2019-01-06T21:56:25.995Z,69.27
2019-01-06T22:06:46.129Z,51.50
2019-01-06T22:17:06.162Z,65.27
2019-01-06T22:27:18.562Z,63.23
2019-01-06T22:37:24.881Z,90.13
2019-01-06T22:47:26.637Z,82.03
2019-01-06T22:57:37.964Z,88.47
2019-01-06T23:07:39.466Z,93.77
2019-01-06T23:17:43.012Z,88.03
2019-01-06T23:27:58.368Z,73.53
2019-01-06T23:38:07.430Z,55.07
2019-01-06T23:48:11.105Z,74.67
2019-01-06T23:58:23.523Z,67.13
